MSC Susanna — 3ECU4 — position and weather

sailwx.info

Track history (hours):
 
Tides and Currents Weather Stations Pressure Air Temp Water Temp Dewpoint Dewpoint Depression Visibility Wind Speed Wind Dir Waves Ship Positions

MSC Susanna

Last reported at 2016-Aug-05 18:33 UTC. Time now 2016-Aug-25 04:30 UTC.
Position N 31°39' E 032°05'.
Warning: this ship's position is 19 days out of date.

Length 337 m; draft 15.6 m.

Type: Ship (hazmat cat A). MMSI: 371466000.

Date/timePositionNaut miles runAvg speedWind from/ knotsBaromVisibWave heightAir tempDewpointWater temp
2016-Aug-05 18:33N 31°39' E 032°05'1612.6
2016-Aug-05 17:14N 31°49' E 031°49'2514.3
2016-Aug-05 15:30N 31°60' E 031°23'1414.2
2016-Aug-05 14:33N 32°05' E 031°08'1414.1
2016-Aug-05 13:32N 32°11' E 030°53'  
2016-Aug-03 08:03N 37°47' E 015°52'713.7
2016-Aug-03 07:33N 37°50' E 015°44'1211.7
2016-Aug-03 06:33N 37°59' E 015°35'3014.9
2016-Aug-03 04:33N 38°26' E 015°52'2 2.2
2016-Aug-03 03:28N 38°27' E 015°54'0 0.0
2016-Aug-03 02:31N 38°27' E 015°54'0 0.0
2016-Aug-03 01:31N 38°27' E 015°54'0 0.0
2016-Aug-03 00:31N 38°27' E 015°54'0 0.0
2016-Aug-02 23:28N 38°27' E 015°54'0 0.0
2016-Aug-02 22:31N 38°27' E 015°54'0 0.0
2016-Aug-02 21:25N 38°27' E 015°54'0 0.0
2016-Aug-02 20:31N 38°27' E 015°54'0 0.0
2016-Aug-02 19:31N 38°27' E 015°54'0 0.0
2016-Aug-02 18:31N 38°27' E 015°54'0 0.0
2016-Aug-02 16:31N 38°27' E 015°54'0 0.0
2016-Aug-02 15:31N 38°27' E 015°54'0 0.0
2016-Aug-02 14:28N 38°27' E 015°54'0 0.0
2016-Aug-02 13:31N 38°27' E 015°54'0 0.0
2016-Aug-02 12:31N 38°27' E 015°54'0 0.0
2016-Aug-02 11:31N 38°27' E 015°54'0 0.0
2016-Aug-02 10:31N 38°27' E 015°54'0 0.0
2016-Aug-02 09:28N 38°27' E 015°54'0 0.0
2016-Aug-02 08:28N 38°27' E 015°54'1 0.8
2016-Aug-02 07:33N 38°27' E 015°54'5 5.5
2016-Aug-02 06:34N 38°29' E 015°47'4 1.7
2016-Aug-02 04:33N 38°32' E 015°45'0 0.2
2016-Aug-02 03:33N 38°32' E 015°45'0 0.2
2016-Aug-02 02:33N 38°32' E 015°45'0 0.1
2016-Aug-02 01:33N 38°32' E 015°45'0 0.2
2016-Aug-02 00:33N 38°32' E 015°44'0 0.3
2016-Aug-01 23:33N 38°32' E 015°44'0 0.3
2016-Aug-01 22:33N 38°33' E 015°44'3 2.9
2016-Aug-01 21:33N 38°30' E 015°44'2 1.9
2016-Aug-01 20:33N 38°28' E 015°44'0 0.1
2016-Aug-01 19:34N 38°28' E 015°44'0 0.4
2016-Aug-01 18:34N 38°28' E 015°45'0 0.2
2016-Aug-01 17:33N 38°29' E 015°45'0 0.3
2016-Aug-01 16:34N 38°28' E 015°45'0 0.3
2016-Aug-01 15:33N 38°29' E 015°45'6 6.2
2016-Aug-01 14:34N 38°28' E 015°37'10 9.7
2016-Aug-01 13:34N 38°25' E 015°26'1010.3
2016-Aug-01 12:33N 38°21' E 015°13'1010.1
2016-Aug-01 11:33N 38°18' E 015°01'1110.7
2016-Aug-01 10:33N 38°18' E 014°47'1111.3
2016-Aug-01 09:34N 38°18' E 014°33'1211.7
2016-Aug-01 08:34N 38°18' E 014°18'1412.3
2016-Aug-01 07:26N 38°19' E 014°01'2312.2
2016-Aug-01 05:33N 38°19' E 013°31'1212.4
2016-Aug-01 04:34N 38°18' E 013°16'1313.0
2016-Aug-01 03:33N 38°18' E 012°59'1312.8
2016-Aug-01 02:34N 38°16' E 012°43'1312.6
2016-Aug-01 01:33N 38°15' E 012°27'1312.7
2016-Aug-01 00:34N 38°14' E 012°11'4512.9
2016-Jul-31 21:05N 38°10' E 011°14'713.6
2016-Jul-31 20:33N 38°09' E 011°05'1313.4
2016-Jul-31 19:33N 38°06' E 010°48'1312.8
2016-Jul-31 18:34N 38°04' E 010°32'1312.8
2016-Jul-31 17:33N 38°02' E 010°16'1312.8
2016-Jul-31 16:32N 38°00' E 009°60'1312.9
2016-Jul-31 15:33N 37°58' E 009°44'1313.0
2016-Jul-31 14:34N 37°55' E 009°28'1312.7
2016-Jul-31 13:33N 37°53' E 009°12'1413.7
2016-Jul-31 12:33N 37°51' E 008°55'1514.6
2016-Jul-31 11:32N 37°48' E 008°36'1914.3
2016-Jul-31 10:13N 37°45' E 008°13'11715.2
2016-Jul-31 02:33N 37°26' E 005°47'1515.3
2016-Jul-31 01:33N 37°23' E 005°28'1615.2
2016-Jul-31 00:32N 37°21' E 005°09'3015.1
2016-Jul-30 22:33N 37°16' E 004°32'1515.2
2016-Jul-30 21:33N 37°14' E 004°13'1515.2
2016-Jul-30 20:33N 37°11' E 003°54'1615.5
2016-Jul-30 19:33N 37°08' E 003°35'1615.7
2016-Jul-30 18:33N 37°06' E 003°16'1615.4
2016-Jul-30 17:33N 37°03' E 002°56'1515.3
2016-Jul-30 16:33N 37°00' E 002°38'1515.5
2016-Jul-30 15:33N 36°57' E 002°19'1515.4
2016-Jul-30 14:33N 36°54' E 001°60'1615.8
2016-Jul-30 13:33N 36°51' E 001°41'1615.9
2016-Jul-30 12:33N 36°48' E 001°21'1716.0
2016-Jul-30 11:30N 36°44' E 001°01'1415.3
2016-Jul-30 10:33N 36°41' E 000°43'1515.6
2016-Jul-30 09:33N 36°38' E 000°24'1615.7
2016-Jul-30 08:34N 36°36' E 000°05'1515.4
2016-Jul-30 07:33N 36°33' W 000°14'1515.3
2016-Jul-30 06:33N 36°30' W 000°33'1515.0
2016-Jul-30 05:33N 36°26' W 000°51'1615.0
2016-Jul-30 04:31N 36°23' W 001°10'3014.8
2016-Jul-30 02:30N 36°18' W 001°46'1414.6
2016-Jul-30 01:33N 36°16' W 002°03'6515.3
2016-Jul-29 21:19N 36°09' W 003°24'9015.6
2016-Jul-29 15:33N 35°60' W 005°14'17115.3
2016-Jul-29 04:21N 36°26' W 008°43'1215.2
2016-Jul-29 03:33N 36°29' W 008°58'1515.1
2016-Jul-29 02:33N 36°33' W 009°16'1515.1
2016-Jul-29 01:33N 36°44' W 009°29'1515.0
2016-Jul-29 00:33N 36°58' W 009°35'1514.6
2016-Jul-28 23:33N 37°11' W 009°27'1515.3
2016-Jul-28 22:33N 37°24' W 009°17'1515.2
2016-Jul-28 21:33N 37°37' W 009°06'1515.3
2016-Jul-28 20:33N 37°49' W 008°55'8 7.7
2016-Jul-28 19:33N 37°56' W 008°51'0 0.0
2016-Jul-28 18:33N 37°56' W 008°51'0 0.0
2016-Jul-28 17:33N 37°56' W 008°51'0 0.0
2016-Jul-28 16:33N 37°56' W 008°51'0 0.0
2016-Jul-28 15:33N 37°56' W 008°51'0 0.0
2016-Jul-28 14:33N 37°56' W 008°51'0 0.0
2016-Jul-28 13:33N 37°56' W 008°51'0 0.0
2016-Jul-28 12:30N 37°56' W 008°51'0 0.0
2016-Jul-28 11:33N 37°56' W 008°51'0 0.0
2016-Jul-28 10:33N 37°56' W 008°51'0 0.4
2016-Jul-28 09:33N 37°56' W 008°51'5 4.6
2016-Jul-28 08:33N 37°51' W 008°52'3 3.2
2016-Jul-28 07:33N 37°50' W 008°56'0 0.4
2016-Jul-28 06:33N 37°51' W 008°56'1 0.6
2016-Jul-28 05:33N 37°51' W 008°56'0 0.4
2016-Jul-28 04:33N 37°51' W 008°57'1 1.0
2016-Jul-28 03:33N 37°50' W 008°57'5 4.5
2016-Jul-28 02:33N 37°54' W 008°53'7 7.1
2016-Jul-28 01:33N 37°59' W 008°59'8 7.8
2016-Jul-28 00:33N 38°04' W 009°07'1111.1
2016-Jul-27 23:33N 38°10' W 009°19'1312.9
2016-Jul-27 22:33N 38°17' W 009°33'1312.6
2016-Jul-27 21:33N 38°24' W 009°46'1312.2
2016-Jul-27 20:32N 38°31' W 009°59'1211.7
2016-Jul-27 19:33N 38°41' W 010°06'1313.3
2016-Jul-27 18:32N 38°55' W 010°06'  
Track history (hours):
 
Tides and Currents Weather Stations Pressure Air Temp Water Temp Dewpoint Dewpoint Depression Visibility Wind Speed Wind Dir Waves Ship Positions

MSC Susanna

Last reported at 2016-Aug-05 18:33 UTC. Time now 2016-Aug-25 04:30 UTC.
Position N 31°39' E 032°05'.
Warning: this ship's position is 19 days out of date.

Length 337 m; draft 15.6 m.

Type: Ship (hazmat cat A). MMSI: 371466000.

Date/timePositionNaut miles runAvg speedWind from/ knotsBaromVisibWave heightAir tempDewpointWater temp
2016-Aug-05 18:33N 31°39' E 032°05'1612.6
2016-Aug-05 17:14N 31°49' E 031°49'2514.3
2016-Aug-05 15:30N 31°60' E 031°23'1414.2
2016-Aug-05 14:33N 32°05' E 031°08'1414.1
2016-Aug-05 13:32N 32°11' E 030°53'  
2016-Aug-03 08:03N 37°47' E 015°52'713.7
2016-Aug-03 07:33N 37°50' E 015°44'1211.7
2016-Aug-03 06:33N 37°59' E 015°35'3014.9
2016-Aug-03 04:33N 38°26' E 015°52'2 2.2
2016-Aug-03 03:28N 38°27' E 015°54'0 0.0
2016-Aug-03 02:31N 38°27' E 015°54'0 0.0
2016-Aug-03 01:31N 38°27' E 015°54'0 0.0
2016-Aug-03 00:31N 38°27' E 015°54'0 0.0
2016-Aug-02 23:28N 38°27' E 015°54'0 0.0
2016-Aug-02 22:31N 38°27' E 015°54'0 0.0
2016-Aug-02 21:25N 38°27' E 015°54'0 0.0
2016-Aug-02 20:31N 38°27' E 015°54'0 0.0
2016-Aug-02 19:31N 38°27' E 015°54'0 0.0
2016-Aug-02 18:31N 38°27' E 015°54'0 0.0
2016-Aug-02 16:31N 38°27' E 015°54'0 0.0
2016-Aug-02 15:31N 38°27' E 015°54'0 0.0
2016-Aug-02 14:28N 38°27' E 015°54'0 0.0
2016-Aug-02 13:31N 38°27' E 015°54'0 0.0
2016-Aug-02 12:31N 38°27' E 015°54'0 0.0
2016-Aug-02 11:31N 38°27' E 015°54'0 0.0
2016-Aug-02 10:31N 38°27' E 015°54'0 0.0
2016-Aug-02 09:28N 38°27' E 015°54'0 0.0
2016-Aug-02 08:28N 38°27' E 015°54'1 0.8
2016-Aug-02 07:33N 38°27' E 015°54'5 5.5
2016-Aug-02 06:34N 38°29' E 015°47'4 1.7
2016-Aug-02 04:33N 38°32' E 015°45'0 0.2
2016-Aug-02 03:33N 38°32' E 015°45'0 0.2
2016-Aug-02 02:33N 38°32' E 015°45'0 0.1
2016-Aug-02 01:33N 38°32' E 015°45'0 0.2
2016-Aug-02 00:33N 38°32' E 015°44'0 0.3
2016-Aug-01 23:33N 38°32' E 015°44'0 0.3
2016-Aug-01 22:33N 38°33' E 015°44'3 2.9
2016-Aug-01 21:33N 38°30' E 015°44'2 1.9
2016-Aug-01 20:33N 38°28' E 015°44'0 0.1
2016-Aug-01 19:34N 38°28' E 015°44'0 0.4
2016-Aug-01 18:34N 38°28' E 015°45'0 0.2
2016-Aug-01 17:33N 38°29' E 015°45'0 0.3
2016-Aug-01 16:34N 38°28' E 015°45'0 0.3
2016-Aug-01 15:33N 38°29' E 015°45'6 6.2
2016-Aug-01 14:34N 38°28' E 015°37'10 9.7
2016-Aug-01 13:34N 38°25' E 015°26'1010.3
2016-Aug-01 12:33N 38°21' E 015°13'1010.1
2016-Aug-01 11:33N 38°18' E 015°01'1110.7
2016-Aug-01 10:33N 38°18' E 014°47'1111.3
2016-Aug-01 09:34N 38°18' E 014°33'1211.7
2016-Aug-01 08:34N 38°18' E 014°18'1412.3
2016-Aug-01 07:26N 38°19' E 014°01'2312.2
2016-Aug-01 05:33N 38°19' E 013°31'1212.4
2016-Aug-01 04:34N 38°18' E 013°16'1313.0
2016-Aug-01 03:33N 38°18' E 012°59'1312.8
2016-Aug-01 02:34N 38°16' E 012°43'1312.6
2016-Aug-01 01:33N 38°15' E 012°27'1312.7
2016-Aug-01 00:34N 38°14' E 012°11'4512.9
2016-Jul-31 21:05N 38°10' E 011°14'713.6
2016-Jul-31 20:33N 38°09' E 011°05'1313.4
2016-Jul-31 19:33N 38°06' E 010°48'1312.8
2016-Jul-31 18:34N 38°04' E 010°32'1312.8
2016-Jul-31 17:33N 38°02' E 010°16'1312.8
2016-Jul-31 16:32N 38°00' E 009°60'1312.9
2016-Jul-31 15:33N 37°58' E 009°44'1313.0
2016-Jul-31 14:34N 37°55' E 009°28'1312.7
2016-Jul-31 13:33N 37°53' E 009°12'1413.7
2016-Jul-31 12:33N 37°51' E 008°55'1514.6
2016-Jul-31 11:32N 37°48' E 008°36'1914.3
2016-Jul-31 10:13N 37°45' E 008°13'11715.2
2016-Jul-31 02:33N 37°26' E 005°47'1515.3
2016-Jul-31 01:33N 37°23' E 005°28'1615.2
2016-Jul-31 00:32N 37°21' E 005°09'3015.1
2016-Jul-30 22:33N 37°16' E 004°32'1515.2
2016-Jul-30 21:33N 37°14' E 004°13'1515.2
2016-Jul-30 20:33N 37°11' E 003°54'1615.5
2016-Jul-30 19:33N 37°08' E 003°35'1615.7
2016-Jul-30 18:33N 37°06' E 003°16'1615.4
2016-Jul-30 17:33N 37°03' E 002°56'1515.3
2016-Jul-30 16:33N 37°00' E 002°38'1515.5
2016-Jul-30 15:33N 36°57' E 002°19'1515.4
2016-Jul-30 14:33N 36°54' E 001°60'1615.8
2016-Jul-30 13:33N 36°51' E 001°41'1615.9
2016-Jul-30 12:33N 36°48' E 001°21'1716.0
2016-Jul-30 11:30N 36°44' E 001°01'1415.3
2016-Jul-30 10:33N 36°41' E 000°43'1515.6
2016-Jul-30 09:33N 36°38' E 000°24'1615.7
2016-Jul-30 08:34N 36°36' E 000°05'1515.4
2016-Jul-30 07:33N 36°33' W 000°14'1515.3
2016-Jul-30 06:33N 36°30' W 000°33'1515.0
2016-Jul-30 05:33N 36°26' W 000°51'1615.0
2016-Jul-30 04:31N 36°23' W 001°10'3014.8
2016-Jul-30 02:30N 36°18' W 001°46'1414.6
2016-Jul-30 01:33N 36°16' W 002°03'6515.3
2016-Jul-29 21:19N 36°09' W 003°24'9015.6
2016-Jul-29 15:33N 35°60' W 005°14'17115.3
2016-Jul-29 04:21N 36°26' W 008°43'1215.2
2016-Jul-29 03:33N 36°29' W 008°58'1515.1
2016-Jul-29 02:33N 36°33' W 009°16'1515.1
2016-Jul-29 01:33N 36°44' W 009°29'1515.0
2016-Jul-29 00:33N 36°58' W 009°35'1514.6
2016-Jul-28 23:33N 37°11' W 009°27'1515.3
2016-Jul-28 22:33N 37°24' W 009°17'1515.2
2016-Jul-28 21:33N 37°37' W 009°06'1515.3
2016-Jul-28 20:33N 37°49' W 008°55'8 7.7
2016-Jul-28 19:33N 37°56' W 008°51'0 0.0
2016-Jul-28 18:33N 37°56' W 008°51'0 0.0
2016-Jul-28 17:33N 37°56' W 008°51'0 0.0
2016-Jul-28 16:33N 37°56' W 008°51'0 0.0
2016-Jul-28 15:33N 37°56' W 008°51'0 0.0
2016-Jul-28 14:33N 37°56' W 008°51'0 0.0
2016-Jul-28 13:33N 37°56' W 008°51'0 0.0
2016-Jul-28 12:30N 37°56' W 008°51'0 0.0
2016-Jul-28 11:33N 37°56' W 008°51'0 0.0
2016-Jul-28 10:33N 37°56' W 008°51'0 0.4
2016-Jul-28 09:33N 37°56' W 008°51'5 4.6
2016-Jul-28 08:33N 37°51' W 008°52'3 3.2
2016-Jul-28 07:33N 37°50' W 008°56'0 0.4
2016-Jul-28 06:33N 37°51' W 008°56'1 0.6
2016-Jul-28 05:33N 37°51' W 008°56'0 0.4
2016-Jul-28 04:33N 37°51' W 008°57'1 1.0
2016-Jul-28 03:33N 37°50' W 008°57'5 4.5
2016-Jul-28 02:33N 37°54' W 008°53'7 7.1
2016-Jul-28 01:33N 37°59' W 008°59'8 7.8
2016-Jul-28 00:33N 38°04' W 009°07'1111.1
2016-Jul-27 23:33N 38°10' W 009°19'1312.9
2016-Jul-27 22:33N 38°17' W 009°33'1312.6
2016-Jul-27 21:33N 38°24' W 009°46'1312.2
2016-Jul-27 20:32N 38°31' W 009°59'1211.7
2016-Jul-27 19:33N 38°41' W 010°06'1313.3
2016-Jul-27 18:32N 38°55' W 010°06'  

Dump ship's entire track history